Time;durP1;ratioP1;P1;durP2;ratioP2;P2;SDS_P1;SDS_P2;PMS_P1;PMS_P2;Temp;Humidity;BMP_temperature;BMP_pressure;BME280_temperature;BME280_humidity;BME280_pressure;Samples;Min_cycle;Max_cycle;Signal;HPM_P1;HPM_P2
2023/11/21 00:01:04;;;;;;;2.00;0.88;;;9.00;99.90;;;;;;5051724;28;20052;-71
2023/11/21 00:03:30;;;;;;;4.47;1.33;;;9.00;99.90;;;;;;5051131;28;20552;-71
2023/11/21 00:05:56;;;;;;;3.60;1.33;;;9.00;99.90;;;;;;5034019;28;20112;-71
2023/11/21 00:08:22;;;;;;;6.35;1.30;;;9.10;99.90;;;;;;5050740;28;20128;-71
2023/11/21 00:10:48;;;;;;;1.98;0.90;;;9.10;99.90;;;;;;5051735;28;20064;-71
2023/11/21 00:13:14;;;;;;;6.18;1.27;;;9.10;99.90;;;;;;5051184;28;20025;-71
2023/11/21 00:15:40;;;;;;;1.13;0.65;;;9.20;99.90;;;;;;5052722;28;20025;-71
2023/11/21 00:18:06;;;;;;;0.80;0.50;;;9.10;99.90;;;;;;5050520;28;20021;-71
2023/11/21 00:20:32;;;;;;;5.28;0.90;;;9.20;99.90;;;;;;5050280;28;20025;-71
2023/11/21 00:22:59;;;;;;;2.35;0.82;;;9.20;99.90;;;;;;5050494;28;20424;-71
2023/11/21 00:25:25;;;;;;;1.45;0.68;;;9.20;99.90;;;;;;5050105;28;20600;-69
2023/11/21 00:27:50;;;;;;;10.80;1.10;;;9.20;99.90;;;;;;5049176;28;20037;-69
2023/11/21 00:30:17;;;;;;;0.73;0.35;;;9.20;99.90;;;;;;5050109;28;20056;-69
2023/11/21 00:32:43;;;;;;;6.68;1.35;;;9.20;99.90;;;;;;5050200;28;20029;-69
2023/11/21 00:35:09;;;;;;;1.83;1.10;;;9.20;99.90;;;;;;5050245;28;20044;-69
2023/11/21 00:37:34;;;;;;;1.65;0.70;;;9.20;99.90;;;;;;5049273;28;20033;-69
2023/11/21 00:40:05;;;;;;;1.35;0.85;;;9.20;99.90;;;;;;5049978;28;20032;-69
2023/11/21 00:42:33;;;;;;;2.08;0.70;;;9.20;99.90;;;;;;5051213;28;20060;-69
2023/11/21 00:44:59;;;;;;;10.20;1.38;;;9.20;99.90;;;;;;5043174;28;20021;-69
2023/11/21 00:47:25;;;;;;;4.03;1.20;;;9.20;99.90;;;;;;5051412;28;20029;-69
2023/11/21 00:49:51;;;;;;;7.93;0.80;;;9.20;99.90;;;;;;5049205;28;20419;-69
2023/11/21 00:52:16;;;;;;;8.10;0.85;;;9.20;99.90;;;;;;5051697;28;20029;-69
2023/11/21 00:54:42;;;;;;;1.58;0.65;;;9.20;99.90;;;;;;5050430;28;20104;-69
2023/11/21 00:57:08;;;;;;;3.15;1.30;;;9.20;99.90;;;;;;5051365;28;20025;-71
2023/11/21 00:59:34;;;;;;;0.60;0.50;;;9.30;99.90;;;;;;5049451;28;20052;-69
2023/11/21 01:02:01;;;;;;;2.58;1.00;;;9.30;99.90;;;;;;5050492;28;20079;-69
2023/11/21 01:04:27;;;;;;;4.00;0.98;;;9.30;99.90;;;;;;5049889;28;20033;-70
2023/11/21 01:06:53;;;;;;;1.70;0.85;;;9.30;99.90;;;;;;5051252;28;20029;-70
2023/11/21 01:09:19;;;;;;;4.00;0.88;;;9.30;99.90;;;;;;5053707;28;20079;-69
2023/11/21 01:11:45;;;;;;;2.45;1.35;;;9.30;99.90;;;;;;5053822;28;20025;-69
2023/11/21 01:14:10;;;;;;;1.58;0.75;;;9.30;99.90;;;;;;5053936;28;20435;-70
2023/11/21 01:16:36;;;;;;;5.53;0.70;;;9.30;99.90;;;;;;5053860;28;20370;-70
2023/11/21 01:19:02;;;;;;;7.88;1.45;;;9.30;99.90;;;;;;5052768;28;20052;-70
2023/11/21 01:21:28;;;;;;;2.50;1.20;;;9.30;99.90;;;;;;5053600;28;20473;-69
2023/11/21 01:23:55;;;;;;;5.38;1.02;;;9.30;99.90;;;;;;5052941;28;20037;-70
2023/11/21 01:26:21;;;;;;;1.38;0.50;;;9.30;99.90;;;;;;5053694;28;20447;-70
2023/11/21 01:28:48;;;;;;;1.98;1.13;;;9.30;99.90;;;;;;5053578;28;20045;-69
2023/11/21 01:31:15;;;;;;;6.28;1.00;;;9.30;99.90;;;;;;5053385;28;20025;-69
2023/11/21 01:33:41;;;;;;;3.70;0.95;;;9.40;99.90;;;;;;5052753;28;20028;-70
2023/11/21 01:36:07;;;;;;;11.35;1.98;;;9.30;99.90;;;;;;5053421;28;20017;-71
2023/11/21 01:38:34;;;;;;;1.85;0.77;;;9.40;99.90;;;;;;5052605;28;20036;-71
2023/11/21 01:41:00;;;;;;;1.08;0.68;;;9.30;99.90;;;;;;5045302;28;20055;-71
2023/11/21 01:43:27;;;;;;;3.45;0.70;;;9.40;99.90;;;;;;5053068;28;20082;-71
2023/11/21 01:45:56;;;;;;;2.83;0.38;;;9.40;99.90;;;;;;5052908;28;20035;-71
2023/11/21 01:48:23;;;;;;;7.28;1.00;;;9.30;99.90;;;;;;5053125;28;20512;-69
2023/11/21 01:50:50;;;;;;;4.30;1.20;;;9.40;99.90;;;;;;5053369;28;20513;-69
2023/11/21 01:53:16;;;;;;;6.35;0.85;;;9.30;99.90;;;;;;5052821;28;20166;-70
2023/11/21 01:55:43;;;;;;;7.72;0.98;;;9.30;99.90;;;;;;5052863;28;20111;-70
2023/11/21 01:58:12;;;;;;;1.05;0.63;;;9.40;99.90;;;;;;5032156;28;20036;-70
2023/11/21 02:00:38;;;;;;;7.03;1.52;;;9.30;99.90;;;;;;5065906;28;20028;-70
2023/11/21 02:03:04;;;;;;;6.78;0.77;;;9.40;99.90;;;;;;5053030;28;20469;-70
2023/11/21 02:05:30;;;;;;;2.90;1.33;;;9.40;99.90;;;;;;5046962;28;20041;-70
2023/11/21 02:07:56;;;;;;;1.20;0.52;;;9.40;99.90;;;;;;5050258;28;20505;-71
2023/11/21 02:10:24;;;;;;;2.65;0.90;;;9.40;99.90;;;;;;5052117;28;20112;-71
2023/11/21 02:12:51;;;;;;;9.73;1.10;;;9.40;99.90;;;;;;5051870;28;20065;-71
2023/11/21 02:15:21;;;;;;;1.40;0.77;;;9.40;99.90;;;;;;5053614;28;20435;-70
2023/11/21 02:17:50;;;;;;;0.65;0.50;;;9.40;99.90;;;;;;5050890;28;20035;-70
2023/11/21 02:20:18;;;;;;;2.55;0.98;;;9.40;99.90;;;;;;5069034;28;20024;-70
2023/11/21 02:22:57;;;;;;;3.83;0.65;;;9.40;99.90;;;;;;5051292;28;20033;-70
2023/11/21 02:25:28;;;;;;;6.47;1.17;;;9.30;99.90;;;;;;5052145;28;20024;-70
2023/11/21 02:27:55;;;;;;;7.57;1.15;;;9.30;99.90;;;;;;5050827;28;20116;-70
2023/11/21 02:30:22;;;;;;;6.03;0.88;;;9.30;99.90;;;;;;5051860;28;20428;-71
2023/11/21 02:32:48;;;;;;;1.27;0.50;;;9.30;99.90;;;;;;5051292;28;20025;-71
2023/11/21 02:35:15;;;;;;;1.92;0.77;;;9.40;99.90;;;;;;5052170;28;20021;-71
2023/11/21 02:37:42;;;;;;;3.53;0.90;;;9.40;99.90;;;;;;5048612;28;20385;-71
2023/11/21 02:40:17;;;;;;;2.85;0.63;;;9.40;99.90;;;;;;5052254;28;20021;-71
2023/11/21 02:42:44;;;;;;;1.67;0.57;;;9.50;99.90;;;;;;5052203;28;20060;-71
2023/11/21 02:45:14;;;;;;;10.18;1.27;;;9.50;99.90;;;;;;5044984;28;20028;-71
2023/11/21 02:47:40;;;;;;;1.65;0.82;;;9.40;99.90;;;;;;5050650;28;20496;-70
2023/11/21 02:50:08;;;;;;;4.20;0.60;;;9.40;99.90;;;;;;5052504;28;20060;-70
2023/11/21 02:52:35;;;;;;;1.38;0.90;;;9.40;99.90;;;;;;5051747;28;20036;-70
2023/11/21 02:55:04;;;;;;;3.10;0.75;;;9.40;99.90;;;;;;5051070;28;20031;-70
2023/11/21 02:57:30;;;;;;;0.73;0.50;;;9.40;99.90;;;;;;5051074;28;20116;-70
2023/11/21 02:59:56;;;;;;;3.92;1.05;;;9.30;99.90;;;;;;5051013;28;20105;-71
2023/11/21 03:02:22;;;;;;;2.30;1.00;;;9.30;99.90;;;;;;5051396;28;20061;-71
2023/11/21 03:04:49;;;;;;;13.52;0.93;;;9.40;99.90;;;;;;5052138;28;20056;-70
2023/11/21 03:07:15;;;;;;;1.70;0.80;;;9.40;99.90;;;;;;5051550;28;20037;-71
2023/11/21 03:09:41;;;;;;;5.28;1.23;;;9.30;99.90;;;;;;5050783;28;20676;-70
2023/11/21 03:12:08;;;;;;;4.35;1.08;;;9.30;99.90;;;;;;5051205;28;20025;-70
2023/11/21 03:14:34;;;;;;;6.82;1.02;;;9.40;99.90;;;;;;5050321;28;20454;-70
2023/11/21 03:17:00;;;;;;;1.02;0.50;;;9.40;99.90;;;;;;5043178;28;20033;-70
2023/11/21 03:19:26;;;;;;;2.47;0.98;;;9.40;99.90;;;;;;5050663;28;20045;-70
2023/11/21 03:21:53;;;;;;;1.13;0.70;;;9.50;99.90;;;;;;5052422;28;20025;-70
2023/11/21 03:24:19;;;;;;;5.57;0.57;;;9.40;99.90;;;;;;5050870;28;20032;-70
2023/11/21 03:26:46;;;;;;;8.98;1.33;;;9.40;99.90;;;;;;5051003;28;20393;-70
2023/11/21 03:29:13;;;;;;;10.68;1.20;;;9.40;99.90;;;;;;5050468;28;20059;-70
2023/11/21 03:31:40;;;;;;;1.02;0.75;;;9.40;99.90;;;;;;5047324;28;20584;-69
2023/11/21 03:34:06;;;;;;;3.95;1.00;;;9.40;99.90;;;;;;5042968;28;20150;-70
2023/11/21 03:36:32;;;;;;;6.72;1.08;;;9.50;99.90;;;;;;5050976;28;20107;-70
2023/11/21 03:38:57;;;;;;;4.65;0.82;;;9.50;99.90;;;;;;5050207;28;20035;-70
2023/11/21 03:41:23;;;;;;;3.15;1.05;;;9.40;99.90;;;;;;5051328;28;20420;-70
2023/11/21 03:43:49;;;;;;;3.45;1.17;;;9.40;99.90;;;;;;5033588;28;20060;-70
2023/11/21 03:46:14;;;;;;;1.88;1.15;;;9.40;99.90;;;;;;5052109;28;20043;-70
2023/11/21 03:48:41;;;;;;;1.48;0.80;;;9.50;99.90;;;;;;5049758;28;20045;-70
2023/11/21 03:51:07;;;;;;;6.47;0.70;;;9.40;99.90;;;;;;5051717;28;20025;-69
2023/11/21 03:53:33;;;;;;;2.83;0.70;;;9.40;99.90;;;;;;5050063;28;20120;-69
2023/11/21 03:56:01;;;;;;;6.25;1.48;;;9.40;99.90;;;;;;5050347;28;20151;-69
2023/11/21 03:58:27;;;;;;;1.00;0.60;;;9.50;99.90;;;;;;5049376;28;20024;-70
2023/11/21 04:00:53;;;;;;;0.98;0.70;;;9.50;99.90;;;;;;5050413;28;20063;-70
2023/11/21 04:03:19;;;;;;;1.45;0.75;;;9.50;99.90;;;;;;5046127;28;20029;-70
2023/11/21 04:05:45;;;;;;;0.55;0.43;;;9.50;99.90;;;;;;5051607;28;20130;-73
2023/11/21 04:08:11;;;;;;;2.90;0.98;;;9.50;99.90;;;;;;5049420;28;20033;-73
2023/11/21 04:10:39;;;;;;;3.90;0.98;;;9.50;99.90;;;;;;5051198;28;20040;-73
2023/11/21 04:13:06;;;;;;;5.10;1.48;;;9.40;99.90;;;;;;5050509;28;20070;-70
2023/11/21 04:15:32;;;;;;;0.90;0.73;;;9.40;99.90;;;;;;5049364;28;20037;-70
2023/11/21 04:17:58;;;;;;;3.40;1.33;;;9.40;99.90;;;;;;5046054;28;20074;-73
2023/11/21 04:20:24;;;;;;;0.93;0.77;;;9.50;99.90;;;;;;5062043;28;20029;-73
2023/11/21 04:22:51;;;;;;;2.70;0.98;;;9.40;99.90;;;;;;5048361;28;20060;-73
2023/11/21 04:25:17;;;;;;;1.42;0.95;;;9.40;99.90;;;;;;5054194;28;20025;-70
2023/11/21 04:27:44;;;;;;;2.17;1.10;;;9.50;99.90;;;;;;5047740;28;20044;-71
2023/11/21 04:30:13;;;;;;;2.88;1.10;;;9.50;99.90;;;;;;5048954;28;20029;-70
2023/11/21 04:32:39;;;;;;;1.80;0.77;;;9.50;99.90;;;;;;5051633;28;20439;-70
2023/11/21 04:35:06;;;;;;;2.28;0.88;;;9.50;99.90;;;;;;5051501;28;20096;-76
2023/11/21 04:37:31;;;;;;;3.10;1.10;;;9.50;99.90;;;;;;5051330;28;20045;-70
2023/11/21 04:39:57;;;;;;;5.07;0.98;;;9.50;99.90;;;;;;5051797;28;20066;-71
2023/11/21 04:42:23;;;;;;;5.35;0.93;;;9.50;99.90;;;;;;5052791;28;20037;-71
2023/11/21 04:44:49;;;;;;;0.70;0.65;;;9.40;99.90;;;;;;5052112;28;20040;-70
2023/11/21 04:47:15;;;;;;;1.90;0.60;;;9.40;99.90;;;;;;5051741;28;20064;-71
2023/11/21 04:49:46;;;;;;;2.25;1.38;;;9.30;99.90;;;;;;5049852;28;20064;-71
2023/11/21 04:52:12;;;;;;;3.55;1.20;;;9.30;99.90;;;;;;5052060;28;20013;-71
2023/11/21 04:54:39;;;;;;;2.58;0.93;;;9.30;99.90;;;;;;5051950;28;20546;-73
2023/11/21 04:57:07;;;;;;;4.57;1.00;;;9.40;99.90;;;;;;5052720;28;20143;-71
2023/11/21 04:59:34;;;;;;;1.67;0.95;;;9.40;99.90;;;;;;5048812;28;20037;-71
2023/11/21 05:02:02;;;;;;;5.82;1.00;;;9.40;99.90;;;;;;5051100;28;20548;-69
2023/11/21 05:04:28;;;;;;;3.42;0.93;;;9.40;99.90;;;;;;5050962;28;20071;-69
2023/11/21 05:06:54;;;;;;;1.80;0.90;;;9.40;99.90;;;;;;5050835;28;20387;-70
2023/11/21 05:09:22;;;;;;;1.17;0.68;;;9.40;99.90;;;;;;5066488;22;20033;-70
2023/11/21 05:11:47;;;;;;;1.33;1.15;;;9.40;99.90;;;;;;5064955;28;20037;-70
2023/11/21 05:14:14;;;;;;;1.45;0.60;;;9.40;99.90;;;;;;5039008;28;20074;-70
2023/11/21 05:16:39;;;;;;;4.00;0.70;;;9.50;99.90;;;;;;5061336;28;20385;-70
2023/11/21 05:19:06;;;;;;;1.55;0.82;;;9.50;99.90;;;;;;5084741;28;20035;-71
2023/11/21 05:21:32;;;;;;;1.17;0.88;;;9.50;99.90;;;;;;5069168;28;20039;-70
2023/11/21 05:23:58;;;;;;;1.58;0.70;;;9.60;99.90;;;;;;5090305;28;20148;-71
2023/11/21 05:26:24;;;;;;;13.52;3.13;;;9.60;99.90;;;;;;5068790;28;20021;-71
2023/11/21 05:28:50;;;;;;;7.97;3.45;;;9.60;99.90;;;;;;5088980;28;20036;-70
2023/11/21 05:31:15;;;;;;;7.32;2.85;;;9.60;99.90;;;;;;5068718;28;20032;-70
2023/11/21 05:33:42;;;;;;;5.00;0.93;;;9.60;99.90;;;;;;5052597;28;20057;-71
2023/11/21 05:36:09;;;;;;;2.22;0.75;;;9.60;99.90;;;;;;5081501;28;20028;-71
2023/11/21 05:38:36;;;;;;;4.13;1.42;;;9.70;99.90;;;;;;5065127;28;20039;-70
2023/11/21 05:41:03;;;;;;;6.50;3.00;;;9.70;99.90;;;;;;5063154;28;20418;-70
2023/11/21 05:43:30;;;;;;;7.57;1.40;;;9.70;99.90;;;;;;5083021;28;20039;-70
2023/11/21 05:45:56;;;;;;;3.75;2.08;;;9.60;99.90;;;;;;5048407;28;20154;-70
2023/11/21 05:48:23;;;;;;;2.33;1.25;;;9.70;99.90;;;;;;5065168;28;20119;-70
2023/11/21 05:50:49;;;;;;;2.53;1.48;;;9.70;99.90;;;;;;5086459;28;20028;-70
2023/11/21 05:53:16;;;;;;;6.57;1.52;;;9.50;99.90;;;;;;5069580;28;20036;-71
2023/11/21 05:55:42;;;;;;;13.57;4.22;;;9.60;99.90;;;;;;5069515;28;20024;-69
2023/11/21 05:58:08;;;;;;;6.80;3.10;;;9.60;99.90;;;;;;5093522;28;20035;-69
2023/11/21 06:00:34;;;;;;;4.63;1.80;;;9.60;99.90;;;;;;5071798;28;20028;-70
2023/11/21 06:03:00;;;;;;;7.70;2.03;;;9.60;99.90;;;;;;5075258;28;20035;-70
2023/11/21 06:05:27;;;;;;;4.32;2.35;;;9.70;99.90;;;;;;5068079;28;20032;-70
2023/11/21 06:07:54;;;;;;;3.40;1.50;;;9.70;99.90;;;;;;5073845;28;20034;-68
2023/11/21 06:10:22;;;;;;;3.65;2.20;;;9.70;99.90;;;;;;5072307;28;20024;-69
2023/11/21 06:12:48;;;;;;;9.05;1.90;;;9.70;99.90;;;;;;5073842;28;20031;-70
2023/11/21 06:15:14;;;;;;;5.00;2.40;;;9.70;99.90;;;;;;5081830;28;20028;-69
2023/11/21 06:17:41;;;;;;;5.63;2.47;;;9.80;99.90;;;;;;5092927;28;20032;-71
2023/11/21 06:20:09;;;;;;;4.15;2.50;;;9.70;99.90;;;;;;5074838;28;20020;-71
2023/11/21 06:22:40;;;;;;;4.85;2.22;;;9.70;99.90;;;;;;5077817;28;20122;-70
2023/11/21 06:25:08;;;;;;;4.88;2.22;;;9.70;99.90;;;;;;5089090;28;20040;-71
2023/11/21 06:27:43;;;;;;;9.13;2.78;;;9.70;99.90;;;;;;5072023;28;20040;-70
2023/11/21 06:30:09;;;;;;;5.90;2.25;;;9.70;99.90;;;;;;5047917;28;20035;-67
2023/11/21 06:32:36;;;;;;;8.20;3.45;;;9.70;99.90;;;;;;5093686;28;20020;-68
2023/11/21 06:35:04;;;;;;;9.45;3.03;;;9.70;99.90;;;;;;5083773;28;20431;-68
2023/11/21 06:37:31;;;;;;;7.82;3.28;;;9.70;99.90;;;;;;5067393;28;20473;-66
2023/11/21 06:39:58;;;;;;;5.25;2.38;;;9.70;99.90;;;;;;5073820;28;20701;-67
2023/11/21 06:42:25;;;;;;;5.50;2.63;;;9.70;99.90;;;;;;5080369;28;20104;-66
2023/11/21 06:44:51;;;;;;;6.45;3.50;;;9.70;99.90;;;;;;5071628;28;20077;-69
2023/11/21 06:47:20;;;;;;;7.70;3.75;;;9.70;99.90;;;;;;5071204;28;20060;-67
2023/11/21 06:49:47;;;;;;;7.40;3.38;;;9.70;99.90;;;;;;5071972;28;20093;-67
2023/11/21 06:52:13;;;;;;;5.65;2.97;;;9.70;99.90;;;;;;5071188;28;20031;-67
2023/11/21 06:54:39;;;;;;;4.28;2.60;;;9.70;99.90;;;;;;5075432;28;20040;-68
2023/11/21 06:57:05;;;;;;;7.05;3.33;;;9.60;99.90;;;;;;5092722;28;20012;-67
2023/11/21 06:59:31;;;;;;;9.75;3.78;;;9.70;99.90;;;;;;5088403;28;20095;-69
2023/11/21 07:01:57;;;;;;;6.35;3.08;;;9.70;99.90;;;;;;5083353;28;20024;-69
2023/11/21 07:04:25;;;;;;;6.78;3.28;;;9.70;99.90;;;;;;5071724;28;20036;-68
2023/11/21 07:06:54;;;;;;;7.30;3.60;;;9.70;99.90;;;;;;5056100;28;20112;-69
2023/11/21 07:09:25;;;;;;;9.60;2.45;;;9.70;99.90;;;;;;5071931;28;20082;-67
2023/11/21 07:11:52;;;;;;;;;;;9.60;99.90;;;;;;5091145;28;20043;-69
2023/11/21 07:14:19;;;;;;;6.30;3.08;;;9.60;99.90;;;;;;5072260;28;19912;-67
2023/11/21 07:16:46;;;;;;;5.63;3.40;;;9.60;99.90;;;;;;5071988;28;20028;-72
2023/11/21 07:19:12;;;;;;;10.70;3.65;;;9.80;99.90;;;;;;5073975;28;20028;-71
2023/11/21 07:21:39;;;;;;;6.55;3.10;;;9.80;99.90;;;;;;5061522;28;20024;-75
2023/11/21 07:24:07;;;;;;;7.35;3.58;;;9.90;99.90;;;;;;5074517;28;20024;-73
2023/11/21 07:26:34;;;;;;;6.47;3.45;;;9.90;99.90;;;;;;5071863;28;20025;-73
2023/11/21 07:29:02;;;;;;;7.22;3.35;;;10.00;99.90;;;;;;5070389;28;20035;-69
2023/11/21 07:31:29;;;;;;;3.85;2.10;;;9.90;99.90;;;;;;5070164;28;20039;-69
2023/11/21 07:33:57;;;;;;;6.20;3.35;;;10.00;99.90;;;;;;5085014;28;20024;-69
2023/11/21 07:36:23;;;;;;;4.60;2.70;;;9.90;99.90;;;;;;5067922;28;20396;-69
2023/11/21 07:38:50;;;;;;;5.82;2.40;;;9.90;99.90;;;;;;5068155;28;20016;-69
2023/11/21 07:41:17;;;;;;;16.83;4.63;;;9.90;99.90;;;;;;5081079;28;20123;-69
2023/11/21 07:43:44;;;;;;;5.82;2.88;;;9.90;99.90;;;;;;5066457;28;20035;-69
2023/11/21 07:46:12;;;;;;;6.53;2.85;;;10.00;99.90;;;;;;5068035;28;20560;-69
2023/11/21 07:48:42;;;;;;;6.35;3.53;;;10.00;99.90;;;;;;5088625;28;20119;-70
2023/11/21 07:51:09;;;;;;;4.82;2.25;;;10.00;99.90;;;;;;5072506;28;20028;-69
2023/11/21 07:53:36;;;;;;;5.22;2.35;;;10.10;99.90;;;;;;5072062;28;20085;-69
2023/11/21 07:56:08;;;;;;;4.10;2.42;;;10.10;99.90;;;;;;5089901;28;20020;-67
2023/11/21 07:58:35;;;;;;;3.55;2.03;;;10.00;99.90;;;;;;5090980;28;20379;-68
2023/11/21 08:01:02;;;;;;;3.08;1.52;;;10.00;99.90;;;;;;5085963;28;20053;-70
2023/11/21 08:03:30;;;;;;;3.75;2.17;;;10.00;99.90;;;;;;5073442;28;20173;-68
2023/11/21 08:05:57;;;;;;;3.38;1.80;;;10.00;99.90;;;;;;5090454;28;20092;-69
2023/11/21 08:08:23;;;;;;;4.22;2.35;;;10.00;99.90;;;;;;5066941;28;20036;-69
2023/11/21 08:10:56;;;;;;;4.13;1.98;;;10.00;99.90;;;;;;5070626;28;20496;-69
2023/11/21 08:13:23;;;;;;;4.65;2.33;;;10.10;99.90;;;;;;5091233;28;20024;-69
2023/11/21 08:15:49;;;;;;;3.85;1.73;;;10.00;99.90;;;;;;5088267;28;20050;-67
2023/11/21 08:18:17;;;;;;;3.20;1.60;;;10.00;99.90;;;;;;5085940;28;20031;-69
2023/11/21 08:20:47;;;;;;;5.93;1.92;;;10.00;99.90;;;;;;5066216;28;20040;-69
2023/11/21 08:23:15;;;;;;;3.30;1.70;;;10.10;99.90;;;;;;5088621;28;20024;-69
2023/11/21 08:25:43;;;;;;;4.32;1.92;;;10.10;99.90;;;;;;5070716;28;20043;-68
2023/11/21 08:28:08;;;;;;;2.90;1.40;;;10.10;99.90;;;;;;5091069;28;20032;-68
2023/11/21 08:30:35;;;;;;;3.40;1.67;;;10.10;99.90;;;;;;5090291;28;20032;-68
2023/11/21 08:33:00;;;;;;;3.72;1.83;;;10.00;99.90;;;;;;5091021;28;20020;-68
2023/11/21 08:35:26;;;;;;;4.35;1.98;;;10.00;99.90;;;;;;5085872;28;20036;-68
2023/11/21 08:37:55;;;;;;;4.07;1.77;;;10.00;99.90;;;;;;5090573;28;20052;-69
2023/11/21 08:40:21;;;;;;;4.18;2.15;;;10.00;99.90;;;;;;5085849;28;20414;-70
2023/11/21 08:42:48;;;;;;;2.67;1.75;;;9.90;99.90;;;;;;5090376;28;20038;-69
2023/11/21 08:45:17;;;;;;;4.00;2.13;;;10.00;99.90;;;;;;5072258;28;20039;-69
2023/11/21 08:47:46;;;;;;;4.00;1.30;;;10.00;99.90;;;;;;5090573;28;20036;-69
2023/11/21 08:50:13;;;;;;;3.55;1.45;;;9.90;99.90;;;;;;5072634;28;20731;-69
2023/11/21 08:52:40;;;;;;;2.60;1.30;;;9.90;99.90;;;;;;5071774;28;20473;-70
2023/11/21 08:55:12;;;;;;;1.70;1.17;;;10.00;99.90;;;;;;5076806;28;20032;-68
2023/11/21 08:57:39;;;;;;;4.63;0.88;;;10.00;99.90;;;;;;5053208;28;20115;-69
2023/11/21 09:00:11;;;;;;;1.13;0.70;;;10.00;99.90;;;;;;5068370;28;20021;-69
2023/11/21 09:02:42;;;;;;;0.63;0.43;;;10.10;99.90;;;;;;5087381;28;20089;-70
2023/11/21 09:05:13;;;;;;;0.90;0.73;;;10.00;99.90;;;;;;5078224;28;20508;-68
2023/11/21 09:07:41;;;;;;;0.63;0.32;;;10.00;99.90;;;;;;5090122;28;20461;-68
2023/11/21 09:10:09;;;;;;;0.55;0.47;;;10.00;99.90;;;;;;5085454;28;20032;-68
2023/11/21 09:12:37;;;;;;;2.00;0.70;;;10.00;99.90;;;;;;5090642;28;20023;-68
2023/11/21 09:15:09;;;;;;;0.98;0.57;;;10.00;99.90;;;;;;5071990;28;20028;-69
2023/11/21 09:17:35;;;;;;;1.25;0.57;;;10.00;99.90;;;;;;5090004;28;20093;-69
2023/11/21 09:20:03;;;;;;;1.85;0.75;;;10.10;99.90;;;;;;5084699;28;20784;-69
2023/11/21 09:22:29;;;;;;;0.88;0.68;;;10.10;99.90;;;;;;5072168;28;20024;-69
2023/11/21 09:24:57;;;;;;;2.55;1.25;;;10.10;99.90;;;;;;5085138;28;20040;-69
2023/11/21 09:27:23;;;;;;;0.88;0.65;;;10.10;99.90;;;;;;5083629;28;20048;-69
2023/11/21 09:29:49;;;;;;;1.33;0.70;;;10.10;99.90;;;;;;5073207;28;20036;-69
2023/11/21 09:32:16;;;;;;;3.67;1.60;;;10.10;99.90;;;;;;5071433;28;20029;-69
2023/11/21 09:34:41;;;;;;;3.95;1.13;;;10.10;99.90;;;;;;5088916;28;20055;-70
2023/11/21 09:37:08;;;;;;;2.55;1.27;;;10.20;99.90;;;;;;5073959;28;20469;-74
2023/11/21 09:39:35;;;;;;;3.13;1.35;;;10.20;99.90;;;;;;5075077;28;20480;-74
2023/11/21 09:42:16;;;;;;;2.15;1.35;;;10.20;99.90;;;;;;5073539;28;20027;-72
2023/11/21 09:45:12;;;;;;;3.03;1.27;;;10.30;99.90;;;;;;5089057;28;20054;-75
2023/11/21 09:47:39;;;;;;;3.30;2.10;;;10.40;99.90;;;;;;5093848;28;20511;-73
2023/11/21 09:50:09;;;;;;;3.95;1.98;;;10.50;99.90;;;;;;5088922;28;20028;-76
2023/11/21 09:52:58;;;;;;;3.60;1.92;;;10.50;99.90;;;;;;5046678;28;20496;-74
2023/11/21 09:55:31;;;;;;;4.63;1.70;;;10.40;99.90;;;;;;5079274;28;20044;-77
2023/11/21 09:57:58;;;;;;;2.60;1.77;;;10.40;99.90;;;;;;5091667;28;20024;-73
2023/11/21 10:00:24;;;;;;;3.78;1.98;;;10.60;99.90;;;;;;5071646;28;20080;-74
2023/11/21 10:02:50;;;;;;;3.97;2.08;;;10.70;99.90;;;;;;5093439;28;20032;-72
2023/11/21 10:05:17;;;;;;;4.57;2.13;;;10.70;99.90;;;;;;5071807;28;20035;-75
2023/11/21 10:07:46;;;;;;;5.88;2.47;;;10.80;99.90;;;;;;5092877;28;20039;-76
2023/11/21 10:10:17;;;;;;;7.10;2.75;;;10.90;99.90;;;;;;5066923;28;20033;-72
2023/11/21 10:12:48;;;;;;;4.68;2.47;;;11.00;99.90;;;;;;5074886;28;20036;-75
2023/11/21 10:15:16;;;;;;;7.45;3.45;;;10.90;99.90;;;;;;5075276;28;20031;-72
2023/11/21 10:17:45;;;;;;;5.97;2.53;;;11.00;99.90;;;;;;5071490;28;20054;-73
2023/11/21 10:20:14;;;;;;;4.93;2.20;;;11.10;99.90;;;;;;5087742;28;20035;-75
2023/11/21 10:22:42;;;;;;;6.97;3.45;;;11.10;99.90;;;;;;5077165;28;20157;-73
2023/11/21 10:25:14;;;;;;;6.93;3.13;;;11.00;99.90;;;;;;5074601;28;20677;-70
2023/11/21 10:27:41;;;;;;;9.15;3.03;;;11.10;99.90;;;;;;5068234;28;20078;-70
2023/11/21 10:30:11;;;;;;;7.60;4.03;;;10.90;99.90;;;;;;5068972;28;20036;-71
2023/11/21 10:32:40;;;;;;;7.90;3.23;;;10.80;99.90;;;;;;5071269;28;20025;-71
2023/11/21 10:35:09;;;;;;;13.52;2.80;;;10.70;99.90;;;;;;5076509;28;20136;-70
2023/11/21 10:37:43;;;;;;;7.72;2.88;;;10.70;99.90;;;;;;5075010;28;20447;-70
2023/11/21 10:40:14;;;;;;;6.75;3.15;;;10.70;99.90;;;;;;5083738;28;20024;-71
2023/11/21 10:42:41;;;;;;;8.15;3.13;;;10.70;99.90;;;;;;5080697;28;20115;-70
2023/11/21 10:45:14;;;;;;;8.27;2.90;;;10.70;99.90;;;;;;5085902;28;20040;-71
2023/11/21 10:47:42;;;;;;;7.82;3.20;;;10.50;99.90;;;;;;5076587;28;20032;-71
2023/11/21 10:50:11;;;;;;;9.88;3.50;;;10.40;99.90;;;;;;5069956;28;20534;-70
2023/11/21 10:52:47;;;;;;;6.28;2.90;;;10.30;99.90;;;;;;5090911;28;20046;-71
2023/11/21 10:55:21;;;;;;;4.90;2.53;;;10.30;99.90;;;;;;5068031;28;20032;-71
2023/11/21 10:57:52;;;;;;;10.48;2.67;;;10.10;99.90;;;;;;5092701;28;20337;-71
2023/11/21 11:00:21;;;;;;;10.20;2.67;;;10.20;99.90;;;;;;5074929;28;20028;-71
2023/11/21 11:02:55;;;;;;;5.15;3.13;;;10.10;99.90;;;;;;5074238;28;20032;-71
2023/11/21 11:05:26;;;;;;;4.82;2.33;;;10.20;99.90;;;;;;5071213;28;20453;-71
2023/11/21 11:08:05;;;;;;;6.78;3.00;;;10.10;99.90;;;;;;5070419;28;20479;-73
2023/11/21 11:10:32;;;;;;;7.82;3.53;;;10.20;99.90;;;;;;5096745;22;20077;-70
2023/11/21 11:12:59;;;;;;;6.70;2.30;;;10.20;99.90;;;;;;5072182;28;20032;-70
2023/11/21 11:15:26;;;;;;;8.13;3.22;;;10.30;99.90;;;;;;5091648;28;20103;-70
2023/11/21 11:17:57;;;;;;;9.98;3.42;;;10.30;99.90;;;;;;5063453;28;20016;-70
2023/11/21 11:20:30;;;;;;;3.88;2.22;;;10.20;99.90;;;;;;5045838;28;20423;-72
2023/11/21 11:23:02;;;;;;;5.05;2.95;;;10.40;99.90;;;;;;5044903;28;20365;-71
2023/11/21 11:25:45;;;;;;;3.28;1.90;;;10.50;99.90;;;;;;5069982;28;20040;-71
2023/11/21 11:28:27;;;;;;;4.80;2.03;;;10.50;99.90;;;;;;5068216;28;20043;-71
2023/11/21 11:31:11;;;;;;;3.90;2.00;;;10.60;99.90;;;;;;5042809;28;20025;-70
2023/11/21 11:34:11;;;;;;;4.47;2.33;;;10.60;99.90;;;;;;5052953;28;20098;-71
2023/11/21 11:36:48;;;;;;;4.00;2.33;;;10.60;99.90;;;;;;5071138;28;20036;-71
2023/11/21 11:39:43;;;;;;;5.72;3.45;;;10.60;99.90;;;;;;5056987;28;20098;-71
2023/11/21 11:42:15;;;;;;;3.90;1.90;;;10.60;99.90;;;;;;5039441;28;20079;-71
2023/11/21 11:44:45;;;;;;;5.47;2.25;;;10.50;99.90;;;;;;5070964;28;20041;-71
2023/11/21 11:47:32;;;;;;;5.18;1.92;;;10.60;99.90;;;;;;5070122;28;20028;-71
2023/11/21 11:50:21;;;;;;;6.00;2.75;;;10.60;99.90;;;;;;5059680;28;20040;-71
2023/11/21 11:52:54;;;;;;;8.70;2.55;;;10.60;99.90;;;;;;5047371;28;20050;-72
2023/11/21 11:55:23;;;;;;;6.80;2.58;;;10.70;99.90;;;;;;5053170;28;20530;-71
2023/11/21 11:57:56;;;;;;;4.00;2.00;;;11.00;99.90;;;;;;5049074;28;20032;-71
2023/11/21 12:00:30;;;;;;;4.93;2.22;;;11.20;99.90;;;;;;5070178;28;20024;-71
2023/11/21 12:02:58;;;;;;;4.32;2.03;;;11.40;99.90;;;;;;5070365;28;20035;-73
2023/11/21 12:05:30;;;;;;;7.55;1.92;;;11.60;99.90;;;;;;5051780;28;20047;-71
2023/11/21 12:07:58;;;;;;;10.75;2.92;;;11.60;99.90;;;;;;5052977;28;20488;-71
2023/11/21 12:10:25;;;;;;;5.47;2.70;;;11.70;99.90;;;;;;5069917;28;20097;-73
2023/11/21 12:12:55;;;;;;;5.07;2.63;;;11.80;99.90;;;;;;5050341;28;20039;-70
2023/11/21 12:15:21;;;;;;;3.95;2.28;;;11.80;99.90;;;;;;5052162;28;20407;-71
2023/11/21 12:17:49;;;;;;;4.15;2.10;;;11.90;99.90;;;;;;5051672;28;20070;-71
2023/11/21 12:20:19;;;;;;;3.47;1.70;;;12.00;99.90;;;;;;5048549;28;20167;-71
2023/11/21 12:22:55;;;;;;;3.73;1.83;;;12.20;99.90;;;;;;5054920;28;20044;-71
2023/11/21 12:25:29;;;;;;;4.65;1.67;;;12.30;99.90;;;;;;5070521;28;20100;-71
2023/11/21 12:27:57;;;;;;;6.22;2.08;;;12.80;99.90;;;;;;5068673;28;20070;-71
2023/11/21 12:30:29;;;;;;;1.92;0.93;;;13.10;99.90;;;;;;5043262;28;20045;-71
2023/11/21 12:32:56;;;;;;;2.38;1.35;;;13.20;99.90;;;;;;5051380;28;20028;-70
2023/11/21 12:35:26;;;;;;;3.20;1.60;;;13.30;99.90;;;;;;5052437;28;20029;-71
2023/11/21 12:37:54;;;;;;;6.00;1.60;;;13.20;99.90;;;;;;5050460;28;20082;-70
2023/11/21 12:40:22;;;;;;;3.13;1.33;;;13.10;99.90;;;;;;5073419;28;20426;-70
2023/11/21 12:43:01;;;;;;;4.05;2.08;;;12.90;99.90;;;;;;5049346;28;20032;-70
2023/11/21 12:45:28;;;;;;;2.88;1.38;;;12.70;99.90;;;;;;5049671;28;20067;-70
2023/11/21 12:48:03;;;;;;;3.17;1.05;;;12.70;99.90;;;;;;5042123;28;20029;-70
2023/11/21 12:50:36;;;;;;;7.10;1.85;;;12.90;99.90;;;;;;5052064;28;20025;-70
2023/11/21 12:53:10;;;;;;;2.15;0.90;;;13.20;99.90;;;;;;5055134;28;20033;-70
2023/11/21 12:55:37;;;;;;;1.63;0.90;;;13.60;99.90;;;;;;5048737;28;20025;-70
2023/11/21 12:58:11;;;;;;;1.38;0.80;;;14.40;99.90;;;;;;5059538;28;20016;-70